Harrisville, MI (48740)

8:18 PM EDT on August 28, 2015 (GMT -0400)
KMIOSCOD3 | | Change Station
CLOSE
Current Station
Personal Weather Station
Location: On the Beach , North of Oscoda, MI
Elevation: 582 ft
Nearby Weather Stations

Elev 582 ft 44.51 °N, 83.32 °W | Updated 0 second ago

Clear
Clear
60.4 °F
Feels Like 60.4 °F
N
4.0
Wind Variable Wind from SSE
Gusts 5.5 mph

Today
High -- | Low -- °F
--% Chance of Precip.
Yesterday
High -- | Low -- °F
Precip. -- in
6:50 AM 8:17 PM
Waxing Gibbous, 99% visible
Pressure 30.10 in
Visibility 10.0 miles
Clouds Clear
Dew Point 56 °F
Humidity 86%
Rainfall 0.00 in
Snow Depth Not available.
UV 0 out of 12
Pollen 10.00 out of 12
Air Quality Not available.
Flu Activity Not available.
METAR KOSC 290013Z AUTO 18003KT 10SM CLR 19/14 A3010 RMK AO2 T01910137
Pressure 30.10 in
Visibility 10.0 miles
Clouds Clear
Dew Point 56 °F
Humidity 86%
Rainfall 0.00 in
Snow Depth Not available.
UV 0 out of 12
Pollen 10.00 out of 12
Air Quality Not available.
Flu Activity Not available.
METAR KOSC 290013Z AUTO 18003KT 10SM CLR 19/14 A3010 RMK AO2 T01910137
Nowcast | as of 8:00 PM EDT on August 28, 2015

At 9 PM...mostly cloudy. Temperature 66. South winds 9 mph. At 11 PM...mostly cloudy. Temperature 64. South winds 6 mph. At 1 am...cloudy. Chance of showers. Temperature 64. Southwest winds 5 mph. At 3 am...periods of showers. Temperature 64. Southwest winds 5 mph.

×

10-Day Weather Forecast

×

Almanac

Astronomy

Aug. 28, 2015 Rise Set
Actual Time
Civil Twilight
Nautical Twilight
Astronomical Twilight
Moon
Length of Visible Light
Length of Day
Tomorrow will be .
, % of the Moon is Illuminated

Today's Extremes

State Highs State Lows

Community

WunderPhotos

Upload Photos

1,850,543 photos uploaded!

WunderBlogs® & News

Nearby

Air Quality

  Air Quality AQ Index Pollutant
Not available.

Snow Depth

Station Depth Elevation

Earthquake Activity

City Distance Mag. Time & Date
Minimum magnitude displayed is 2.5.

Coastal Water Temperatures

Place Temperature

Stations

Nearby Weather Stations

Station Location Temp. Windchill Dew Point Humidity Wind Precip. Elev Updated Type